createdAt,value
2022-12-11T00:02:18.801Z,70.59
2022-12-11T00:04:49.658Z,70.53
2022-12-11T00:07:22.089Z,70.79
2022-12-11T00:09:54.584Z,70.76
2022-12-11T00:12:29.366Z,70.99
2022-12-11T00:15:01.910Z,70.98
2022-12-11T00:17:32.808Z,70.94
2022-12-11T00:20:05.687Z,71.00
2022-12-11T00:22:38.325Z,70.99
2022-12-11T00:25:09.852Z,71.05
2022-12-11T00:27:42.504Z,71.03
2022-12-11T00:30:15.970Z,71.16
2022-12-11T00:32:48.547Z,71.33
2022-12-11T00:35:21.354Z,71.31
2022-12-11T00:37:51.992Z,71.40
2022-12-11T00:40:24.363Z,71.36
2022-12-11T00:42:56.844Z,71.38
2022-12-11T00:45:27.534Z,71.26
2022-12-11T00:48:00.126Z,71.19
2022-12-11T00:50:30.857Z,71.35
2022-12-11T00:53:03.257Z,71.35
2022-12-11T00:55:54.337Z,71.40
2022-12-11T00:58:27.019Z,71.32
2022-12-11T01:01:09.548Z,71.31
2022-12-11T01:03:42.604Z,71.18
2022-12-11T01:06:19.490Z,71.23
2022-12-11T01:09:13.705Z,71.19
2022-12-11T01:11:46.559Z,71.31
2022-12-11T01:14:19.242Z,71.58
2022-12-11T01:16:50.077Z,71.56
2022-12-11T01:19:22.588Z,71.53
2022-12-11T01:21:54.980Z,71.67
2022-12-11T01:24:25.767Z,71.65
2022-12-11T01:26:58.324Z,71.42
2022-12-11T01:29:29.017Z,71.61
2022-12-11T01:32:01.574Z,71.58
2022-12-11T01:34:34.449Z,71.60
2022-12-11T01:37:06.997Z,71.63
2022-12-11T01:39:40.086Z,71.40
2022-12-11T01:42:20.054Z,71.42
2022-12-11T01:45:27.213Z,71.54
2022-12-11T01:48:10.266Z,71.39
2022-12-11T01:50:45.988Z,71.43
2022-12-11T01:53:21.860Z,71.44
2022-12-11T02:04:12.677Z,71.92
2022-12-11T02:06:46.941Z,71.89
2022-12-11T02:09:20.929Z,71.86
2022-12-11T02:12:00.777Z,72.18
2022-12-11T02:14:40.264Z,72.16
2022-12-11T02:17:18.971Z,71.79
2022-12-11T02:20:03.730Z,71.96
2022-12-11T02:22:53.907Z,71.93
2022-12-11T02:25:31.286Z,71.96
2022-12-11T02:28:21.611Z,71.87
2022-12-11T02:30:55.766Z,72.06
2022-12-11T02:33:42.429Z,71.95
2022-12-11T02:36:15.395Z,71.80
2022-12-11T02:38:50.900Z,71.93
2022-12-11T02:41:24.830Z,71.74
2022-12-11T02:43:58.581Z,71.77
2022-12-11T02:46:31.592Z,72.01
2022-12-11T02:49:06.230Z,72.04
2022-12-11T02:51:45.103Z,72.28
2022-12-11T02:54:21.102Z,72.32
2022-12-11T02:56:55.869Z,72.27
2022-12-11T02:59:31.622Z,72.24
2022-12-11T03:02:04.626Z,72.28
2022-12-11T03:04:38.578Z,72.24
2022-12-11T03:07:13.897Z,72.35
2022-12-11T03:09:48.033Z,72.36
2022-12-11T03:12:23.028Z,72.42
2022-12-11T03:14:55.486Z,72.33
2022-12-11T03:17:27.135Z,72.55
2022-12-11T03:20:06.079Z,72.71
2022-12-11T03:22:42.420Z,72.59
2022-12-11T03:25:18.702Z,72.50
2022-12-11T03:27:55.072Z,72.81
2022-12-11T03:30:28.730Z,72.69
2022-12-11T03:33:04.382Z,72.83
2022-12-11T03:35:38.944Z,72.90
2022-12-11T03:38:14.120Z,72.85
2022-12-11T03:40:50.045Z,72.89
2022-12-11T03:43:25.398Z,72.74
2022-12-11T03:45:58.336Z,72.73
2022-12-11T03:48:36.617Z,72.60
2022-12-11T03:51:10.479Z,72.72
2022-12-11T03:53:42.995Z,72.79
2022-12-11T03:56:17.099Z,72.77
2022-12-11T03:58:49.545Z,72.80
2022-12-11T04:01:22.046Z,72.62
2022-12-11T04:03:52.820Z,72.80
2022-12-11T04:06:25.472Z,72.86
2022-12-11T04:08:56.218Z,73.11
2022-12-11T04:11:38.396Z,73.06
2022-12-11T04:14:30.485Z,73.21
2022-12-11T04:27:08.928Z,73.14
2022-12-11T04:29:41.384Z,73.20
2022-12-11T04:32:13.780Z,73.29
2022-12-11T04:34:46.244Z,73.42
2022-12-11T04:37:17.046Z,73.06
2022-12-11T04:39:49.539Z,73.32
2022-12-11T04:49:24.553Z,73.13
2022-12-11T04:51:55.356Z,73.36
2022-12-11T04:54:27.814Z,73.24
2022-12-11T04:56:58.675Z,73.24
2022-12-11T04:59:31.657Z,73.17
2022-12-11T05:02:04.378Z,73.51
2022-12-11T05:04:37.535Z,73.35
2022-12-11T05:07:10.845Z,73.58
2022-12-11T05:09:43.380Z,73.55
2022-12-11T05:12:14.245Z,73.63
2022-12-11T05:14:46.883Z,73.63
2022-12-11T05:17:19.498Z,73.48
2022-12-11T05:19:52.434Z,73.71
2022-12-11T05:22:24.819Z,73.75
2022-12-11T05:24:57.251Z,73.31
2022-12-11T05:27:30.122Z,73.66
2022-12-11T05:30:02.541Z,73.63
2022-12-11T05:32:36.538Z,73.63
2022-12-11T05:35:10.344Z,73.74
2022-12-11T05:37:42.977Z,73.60
2022-12-11T05:40:15.487Z,73.61
2022-12-11T05:42:47.845Z,73.63
2022-12-11T05:45:20.338Z,73.55
2022-12-11T05:47:52.811Z,73.63
2022-12-11T05:50:25.277Z,73.47
2022-12-11T05:52:56.047Z,73.69
2022-12-11T05:55:28.866Z,73.46
2022-12-11T05:57:59.619Z,73.63
2022-12-11T06:00:36.065Z,73.65
2022-12-11T06:03:08.801Z,73.69
2022-12-11T06:05:40.537Z,73.58
2022-12-11T06:08:13.099Z,73.65
2022-12-11T06:10:50.045Z,73.64
2022-12-11T06:13:22.397Z,73.59
2022-12-11T06:15:53.244Z,73.72
2022-12-11T06:18:25.630Z,73.57
2022-12-11T06:20:58.213Z,73.76
2022-12-11T06:23:28.897Z,73.53
2022-12-11T06:26:03.448Z,73.52
2022-12-11T06:28:35.570Z,73.66
2022-12-11T06:31:09.078Z,73.66
2022-12-11T06:33:41.902Z,73.63
2022-12-11T06:36:16.313Z,73.62
2022-12-11T06:38:49.018Z,73.55
2022-12-11T06:41:19.794Z,73.65
2022-12-11T06:43:52.224Z,73.56
2022-12-11T06:46:24.872Z,73.56
2022-12-11T06:48:57.386Z,73.77
2022-12-11T06:51:28.231Z,73.58
2022-12-11T06:54:00.630Z,73.69
2022-12-11T06:56:33.673Z,73.76
2022-12-11T06:59:07.738Z,73.52
2022-12-11T07:01:40.993Z,73.64
2022-12-11T07:04:13.469Z,73.67
2022-12-11T07:06:47.554Z,73.52
2022-12-11T07:09:19.912Z,73.69
2022-12-11T07:11:54.071Z,73.69
2022-12-11T07:14:26.587Z,73.87
2022-12-11T07:16:57.992Z,73.97
2022-12-11T07:19:30.681Z,74.12
2022-12-11T07:22:03.130Z,74.04
2022-12-11T07:24:34.664Z,74.16
2022-12-11T07:27:07.165Z,74.21
2022-12-11T07:29:40.036Z,74.06
2022-12-11T07:32:12.611Z,73.93
2022-12-11T07:34:48.601Z,73.95
2022-12-11T07:37:25.119Z,73.85
2022-12-11T07:39:57.607Z,73.95
2022-12-11T07:42:30.000Z,73.98
2022-12-11T07:45:02.549Z,74.03
2022-12-11T07:47:34.889Z,74.35
2022-12-11T07:50:07.977Z,74.45
2022-12-11T07:52:40.732Z,74.70
2022-12-11T07:55:14.183Z,74.67
2022-12-11T07:57:46.718Z,74.65
2022-12-11T08:00:18.148Z,74.60
2022-12-11T08:02:50.844Z,74.54
2022-12-11T08:05:23.316Z,74.55
2022-12-11T08:07:56.107Z,74.56
2022-12-11T08:10:26.994Z,74.54
2022-12-11T08:13:00.396Z,74.57
2022-12-11T08:15:33.883Z,74.47
2022-12-11T08:18:06.886Z,74.56
2022-12-11T08:20:41.308Z,74.41
2022-12-11T08:23:14.409Z,74.37
2022-12-11T08:25:46.908Z,74.36
2022-12-11T08:28:19.375Z,74.20
2022-12-11T08:33:42.047Z,74.15
2022-12-11T08:36:16.357Z,73.99
2022-12-11T08:38:49.185Z,73.74
2022-12-11T08:41:23.518Z,73.82
2022-12-11T08:43:56.568Z,73.53
2022-12-11T08:46:32.654Z,73.58
2022-12-11T08:49:05.160Z,73.43
2022-12-11T08:51:35.823Z,73.43
2022-12-11T08:54:08.457Z,73.28
2022-12-11T08:56:39.050Z,73.23
2022-12-11T08:59:12.348Z,73.15
2022-12-11T09:01:43.124Z,72.90
2022-12-11T09:04:16.221Z,72.94
2022-12-11T09:06:48.644Z,72.67
2022-12-11T09:09:20.026Z,72.66
2022-12-11T09:11:52.498Z,72.44
2022-12-11T09:14:25.750Z,72.28
2022-12-11T09:16:58.320Z,72.30
2022-12-11T09:19:32.599Z,72.12
2022-12-11T09:22:05.201Z,71.88
2022-12-11T09:24:38.461Z,71.90
2022-12-11T09:27:10.873Z,71.74
2022-12-11T09:29:41.687Z,71.79
2022-12-11T09:32:13.970Z,71.79
2022-12-11T09:34:46.497Z,71.81
2022-12-11T09:37:17.572Z,71.57
2022-12-11T09:39:52.236Z,71.56
2022-12-11T09:42:29.406Z,71.54
2022-12-11T09:45:07.162Z,71.57
2022-12-11T09:47:42.287Z,71.49
2022-12-11T09:50:18.536Z,71.39
2022-12-11T09:53:47.531Z,71.35
2022-12-11T09:56:31.924Z,71.40
2022-12-11T09:59:14.776Z,71.28
2022-12-11T10:01:56.559Z,70.96
2022-12-11T10:04:46.874Z,70.81
2022-12-11T10:07:22.104Z,70.45
2022-12-11T10:09:58.365Z,70.63
2022-12-11T10:12:42.476Z,70.54
2022-12-11T10:15:27.811Z,70.55
2022-12-11T10:18:06.486Z,70.42
2022-12-11T10:20:40.587Z,70.28
2022-12-11T10:23:20.290Z,69.93
2022-12-11T10:25:59.831Z,69.77
2022-12-11T10:28:40.176Z,69.81
2022-12-11T10:31:34.134Z,69.65
2022-12-11T10:34:15.266Z,69.65
2022-12-11T10:36:47.498Z,69.53
2022-12-11T10:39:18.746Z,69.56
2022-12-11T10:41:53.891Z,69.57
2022-12-11T10:44:30.848Z,69.43
2022-12-11T10:47:11.795Z,69.41
2022-12-11T10:49:54.407Z,69.43
2022-12-11T10:52:26.110Z,69.38
2022-12-11T10:55:06.292Z,69.20
2022-12-11T10:57:40.739Z,69.38
2022-12-11T11:00:34.987Z,69.26
2022-12-11T11:03:09.597Z,68.95
2022-12-11T11:05:49.114Z,68.88
2022-12-11T11:08:26.616Z,68.79
2022-12-11T11:11:02.391Z,68.79
2022-12-11T11:13:37.490Z,68.76
2022-12-11T11:16:14.833Z,68.70
2022-12-11T11:18:55.137Z,68.57
2022-12-11T11:21:30.837Z,68.39
2022-12-11T11:24:04.570Z,68.32
2022-12-11T11:27:11.729Z,68.31
2022-12-11T11:29:33.134Z,68.09
2022-12-11T11:32:19.190Z,68.03
2022-12-11T11:34:55.362Z,67.91
2022-12-11T11:37:37.895Z,67.91
2022-12-11T11:40:16.524Z,67.68
2022-12-11T11:42:54.178Z,67.60
2022-12-11T11:45:30.772Z,67.68
2022-12-11T11:48:17.394Z,67.42
2022-12-11T11:50:58.229Z,67.47
2022-12-11T11:53:39.961Z,67.49
2022-12-11T11:56:23.616Z,67.44
2022-12-11T11:59:32.564Z,67.37
2022-12-11T12:02:19.535Z,67.15
2022-12-11T12:04:56.979Z,67.24
2022-12-11T12:07:42.472Z,67.15
2022-12-11T12:10:27.371Z,67.01
2022-12-11T12:13:14.324Z,66.98
2022-12-11T12:16:00.328Z,66.92
2022-12-11T12:18:46.868Z,66.99
2022-12-11T12:21:25.950Z,66.97
2022-12-11T12:24:09.671Z,66.93
2022-12-11T12:26:47.224Z,67.07
2022-12-11T12:29:28.117Z,67.15
2022-12-11T12:32:11.182Z,66.96
2022-12-11T12:35:19.467Z,67.06
2022-12-11T12:38:05.504Z,67.04
2022-12-11T12:40:45.884Z,67.10
2022-12-11T12:43:45.247Z,67.03
2022-12-11T12:46:53.717Z,67.05
2022-12-11T12:49:39.259Z,66.97
2022-12-11T12:52:22.787Z,66.86
2022-12-11T12:55:20.286Z,66.88
2022-12-11T12:58:01.106Z,66.65
2022-12-11T13:01:17.434Z,66.68
2022-12-11T13:03:59.504Z,66.39
2022-12-11T13:06:39.395Z,66.38
2022-12-11T13:09:17.600Z,66.50
2022-12-11T13:11:54.032Z,66.49
2022-12-11T13:14:31.321Z,66.56
2022-12-11T13:17:26.894Z,66.33
2022-12-11T13:20:19.254Z,66.31
2022-12-11T13:23:09.967Z,66.18
2022-12-11T13:25:55.192Z,66.35
2022-12-11T13:28:31.298Z,66.28
2022-12-11T13:31:25.185Z,66.52
2022-12-11T13:34:10.681Z,66.70
2022-12-11T13:36:47.218Z,66.57
2022-12-11T13:39:24.335Z,66.54
2022-12-11T13:41:59.429Z,66.61
2022-12-11T13:44:50.406Z,66.74
2022-12-11T13:47:30.417Z,66.59
2022-12-11T13:50:13.729Z,66.63
2022-12-11T13:52:57.776Z,66.66
2022-12-11T13:55:34.307Z,66.70
2022-12-11T13:58:15.567Z,66.60
2022-12-11T14:00:59.330Z,66.76
2022-12-11T14:03:33.146Z,66.75
2022-12-11T14:06:18.203Z,66.84
2022-12-11T14:08:53.674Z,66.93
2022-12-11T14:11:29.561Z,66.92
2022-12-11T14:14:03.678Z,66.93
2022-12-11T14:16:36.536Z,67.01
2022-12-11T14:19:11.196Z,66.96
2022-12-11T14:21:44.318Z,66.97
2022-12-11T14:24:17.655Z,66.95
2022-12-11T14:26:53.791Z,66.73
2022-12-11T14:29:31.609Z,66.66
2022-12-11T14:32:05.759Z,66.66
2022-12-11T14:34:41.667Z,66.70
2022-12-11T14:37:17.400Z,66.88
2022-12-11T14:39:55.624Z,67.12
2022-12-11T14:42:30.643Z,67.38
2022-12-11T14:45:06.687Z,67.52
2022-12-11T14:47:42.655Z,67.56
2022-12-11T14:50:21.221Z,67.52
2022-12-11T14:52:55.378Z,67.64
2022-12-11T14:55:30.740Z,67.72
2022-12-11T14:58:26.736Z,67.73
2022-12-11T15:01:07.039Z,67.93
2022-12-11T15:04:13.020Z,67.91
2022-12-11T15:06:56.151Z,67.96
2022-12-11T15:09:45.250Z,68.10
2022-12-11T15:12:51.475Z,68.36
2022-12-11T15:15:24.463Z,68.14
2022-12-11T15:17:57.024Z,68.23
2022-12-11T15:20:31.384Z,68.44
2022-12-11T15:23:04.309Z,68.52
2022-12-11T15:25:37.424Z,68.49
2022-12-11T15:28:30.464Z,68.38
2022-12-11T15:31:05.784Z,68.47
2022-12-11T15:33:49.071Z,68.64
2022-12-11T15:36:28.431Z,68.63
2022-12-11T15:39:01.250Z,68.41
2022-12-11T15:41:34.935Z,68.39
2022-12-11T15:44:07.845Z,68.54
2022-12-11T15:46:40.539Z,68.68
2022-12-11T15:49:15.381Z,68.79
2022-12-11T15:51:51.368Z,68.93
2022-12-11T15:55:04.776Z,68.87
2022-12-11T15:57:42.418Z,68.75
2022-12-11T16:00:39.670Z,69.07
2022-12-11T16:03:36.150Z,69.12
2022-12-11T16:06:34.678Z,68.81
2022-12-11T16:09:46.236Z,69.31
2022-12-11T16:13:12.075Z,69.06
2022-12-11T16:16:25.767Z,69.04
2022-12-11T16:19:09.903Z,68.80
2022-12-11T16:22:03.422Z,69.13
2022-12-11T16:24:36.144Z,69.02
2022-12-11T16:27:10.664Z,69.18
2022-12-11T16:29:59.227Z,69.14
2022-12-11T16:34:16.843Z,69.04
2022-12-11T16:35:36.728Z,69.16
2022-12-11T16:38:13.511Z,69.08
2022-12-11T16:40:48.277Z,69.12
2022-12-11T16:43:20.719Z,69.10
2022-12-11T16:45:56.985Z,69.16
2022-12-11T16:48:30.424Z,69.19
2022-12-11T16:51:02.763Z,69.35
2022-12-11T16:53:35.870Z,69.33
2022-12-11T16:56:10.869Z,69.35
2022-12-11T16:58:43.516Z,69.36
2022-12-11T17:01:19.829Z,69.48
2022-12-11T17:04:06.268Z,69.41
2022-12-11T17:06:41.406Z,69.51
2022-12-11T17:09:14.479Z,69.69
2022-12-11T17:11:47.031Z,69.78
2022-12-11T17:14:17.691Z,69.62
2022-12-11T17:16:49.965Z,69.59
2022-12-11T17:19:23.618Z,69.52
2022-12-11T17:21:57.044Z,69.57
2022-12-11T17:24:30.441Z,69.61
2022-12-11T17:27:02.647Z,69.64
2022-12-11T17:29:35.905Z,69.54
2022-12-11T17:32:09.407Z,69.65
2022-12-11T17:34:42.441Z,69.68
2022-12-11T17:37:14.815Z,69.79
2022-12-11T17:40:12.299Z,69.65
2022-12-11T17:42:45.261Z,69.95
2022-12-11T17:45:17.745Z,69.91
2022-12-11T17:47:50.017Z,69.87
2022-12-11T17:50:24.317Z,69.83
2022-12-11T17:52:57.235Z,69.61
2022-12-11T17:55:30.821Z,69.65
2022-12-11T17:58:03.129Z,69.71
2022-12-11T18:00:36.435Z,70.03
2022-12-11T18:03:09.790Z,70.10
2022-12-11T18:05:47.588Z,69.97
2022-12-11T18:08:22.106Z,69.88
2022-12-11T18:10:55.036Z,70.05
2022-12-11T18:13:27.391Z,69.89
2022-12-11T18:16:05.692Z,69.98
2022-12-11T18:18:39.134Z,69.78
2022-12-11T18:21:20.629Z,69.84
2022-12-11T18:23:58.143Z,69.83
2022-12-11T18:26:32.436Z,69.89
2022-12-11T18:29:05.723Z,69.74
2022-12-11T18:31:42.413Z,69.79
2022-12-11T18:34:16.333Z,70.23
2022-12-11T18:36:51.347Z,70.34
2022-12-11T18:39:24.366Z,70.27
2022-12-11T18:42:32.361Z,69.92
2022-12-11T18:45:07.266Z,70.23
2022-12-11T18:47:50.499Z,70.26
2022-12-11T18:52:38.427Z,70.35
2022-12-11T18:53:51.849Z,70.40
2022-12-11T18:56:25.016Z,70.41
2022-12-11T18:58:59.735Z,70.44
2022-12-11T19:01:37.098Z,70.33
2022-12-11T19:04:11.027Z,70.25
2022-12-11T19:06:47.416Z,70.49
2022-12-11T19:09:21.033Z,70.35
2022-12-11T19:11:54.085Z,70.87
2022-12-11T19:14:30.056Z,70.82
2022-12-11T19:17:04.590Z,70.52
2022-12-11T19:19:37.134Z,70.68
2022-12-11T19:22:09.362Z,70.73
2022-12-11T19:24:42.490Z,70.59
2022-12-11T19:27:14.717Z,70.78
2022-12-11T19:29:46.929Z,70.62
2022-12-11T19:32:19.302Z,71.00
2022-12-11T19:34:56.244Z,70.75
2022-12-11T19:37:32.396Z,70.86
2022-12-11T19:40:11.284Z,71.19
2022-12-11T19:42:50.296Z,71.50
2022-12-11T19:45:50.944Z,71.11
2022-12-11T19:48:34.161Z,70.94
2022-12-11T19:51:10.900Z,70.86
2022-12-11T19:53:45.052Z,70.86
2022-12-11T19:56:19.986Z,71.16
2022-12-11T19:58:54.635Z,70.99
2022-12-11T20:01:32.348Z,70.81
2022-12-11T20:04:31.816Z,71.06
2022-12-11T20:07:46.718Z,71.00
2022-12-11T20:10:27.602Z,70.84
2022-12-11T20:13:38.099Z,70.87
2022-12-11T20:19:18.525Z,70.88
2022-12-11T20:19:40.055Z,71.20
2022-12-11T20:22:07.488Z,70.85
2022-12-11T20:24:49.391Z,70.97
2022-12-11T20:27:29.253Z,71.35
2022-12-11T20:30:07.290Z,71.63
2022-12-11T20:32:42.462Z,71.36
2022-12-11T20:35:15.413Z,71.17
2022-12-11T20:37:46.679Z,71.56
2022-12-11T20:40:19.694Z,71.06
2022-12-11T20:43:03.657Z,71.02
2022-12-11T20:45:45.713Z,71.21
2022-12-11T20:48:18.988Z,71.33
2022-12-11T20:50:51.893Z,71.38
2022-12-11T20:53:30.628Z,71.26
2022-12-11T20:56:04.544Z,71.16
2022-12-11T20:58:43.326Z,71.16
2022-12-11T21:01:21.719Z,71.11
2022-12-11T21:03:58.105Z,71.35
2022-12-11T21:06:37.125Z,71.13
2022-12-11T21:09:36.131Z,70.84
2022-12-11T21:12:31.319Z,71.07
2022-12-11T21:15:08.706Z,71.28
2022-12-11T21:17:51.668Z,70.90
2022-12-11T21:20:42.358Z,71.26
2022-12-11T21:23:15.326Z,71.16
2022-12-11T21:25:49.625Z,71.28
2022-12-11T21:28:29.337Z,70.82
2022-12-11T21:31:10.444Z,71.12
2022-12-11T21:33:47.399Z,70.70
2022-12-11T21:36:23.911Z,70.89
2022-12-11T21:38:59.847Z,70.88
2022-12-11T21:41:32.891Z,70.82
2022-12-11T21:47:10.204Z,70.87
2022-12-11T21:49:52.012Z,70.80
2022-12-11T21:52:58.515Z,70.74
2022-12-11T21:55:47.844Z,70.80
2022-12-11T21:58:40.229Z,71.23
2022-12-11T22:01:32.724Z,70.82
2022-12-11T22:04:07.895Z,70.68
2022-12-11T22:06:47.538Z,70.66
2022-12-11T22:09:24.379Z,70.90
2022-12-11T22:12:04.153Z,70.83
2022-12-11T22:15:00.049Z,70.84
2022-12-11T22:17:51.462Z,70.88
2022-12-11T22:20:37.558Z,70.98
2022-12-11T22:23:35.847Z,71.21
2022-12-11T22:26:29.132Z,70.74
2022-12-11T22:29:14.143Z,70.91
2022-12-11T22:31:59.018Z,71.28
2022-12-11T22:34:34.733Z,70.94
2022-12-11T22:37:22.571Z,70.96
2022-12-11T22:39:58.969Z,71.10
2022-12-11T22:42:53.298Z,70.83
2022-12-11T22:45:27.859Z,70.46
2022-12-11T22:48:00.696Z,70.85
2022-12-11T22:50:33.317Z,70.72
2022-12-11T22:53:06.201Z,70.63
2022-12-11T22:55:40.936Z,70.66
2022-12-11T22:58:18.578Z,70.68
2022-12-11T23:00:54.137Z,70.76
2022-12-11T23:03:26.773Z,70.57
2022-12-11T23:06:04.863Z,70.85
2022-12-11T23:08:39.482Z,70.95
2022-12-11T23:11:18.588Z,70.81
2022-12-11T23:13:51.685Z,70.88
2022-12-11T23:16:27.518Z,70.71
2022-12-11T23:19:37.394Z,70.81
2022-12-11T23:22:09.858Z,70.69
2022-12-11T23:24:42.591Z,70.62
2022-12-11T23:27:13.513Z,70.46
2022-12-11T23:29:45.979Z,70.58
2022-12-11T23:32:18.514Z,70.56
2022-12-11T23:34:51.114Z,70.77
2022-12-11T23:37:23.655Z,70.52
2022-12-11T23:39:56.392Z,70.78
2022-12-11T23:42:28.915Z,70.68
2022-12-11T23:45:01.588Z,70.71
2022-12-11T23:47:34.029Z,70.59
2022-12-11T23:50:07.404Z,70.55
2022-12-11T23:52:39.973Z,70.67
2022-12-11T23:55:13.587Z,70.63
2022-12-11T23:57:46.621Z,70.63
